sensor_id;sensor_type;location;lat;lon;timestamp;temperature;humidity
578;DHT22;275;48.492;9.214;2023-08-20T00:01:28;27.00;36.70
578;DHT22;275;48.492;9.214;2023-08-20T00:03:55;26.80;37.30
578;DHT22;275;48.492;9.214;2023-08-20T00:06:23;26.40;38.40
578;DHT22;275;48.492;9.214;2023-08-20T00:08:50;26.50;38.30
578;DHT22;275;48.492;9.214;2023-08-20T00:11:18;26.80;37.50
578;DHT22;275;48.492;9.214;2023-08-20T00:13:45;26.80;37.60
578;DHT22;275;48.492;9.214;2023-08-20T00:16:13;26.30;39.10
578;DHT22;275;48.492;9.214;2023-08-20T00:18:40;26.20;39.60
578;DHT22;275;48.492;9.214;2023-08-20T00:21:08;26.10;39.80
578;DHT22;275;48.492;9.214;2023-08-20T00:23:36;26.40;39.10
578;DHT22;275;48.492;9.214;2023-08-20T00:26:03;26.60;38.50
578;DHT22;275;48.492;9.214;2023-08-20T00:28:31;26.50;38.70
578;DHT22;275;48.492;9.214;2023-08-20T00:31:00;26.30;39.50
578;DHT22;275;48.492;9.214;2023-08-20T00:33:27;26.00;40.20
578;DHT22;275;48.492;9.214;2023-08-20T00:35:54;26.10;40.00
578;DHT22;275;48.492;9.214;2023-08-20T00:38:21;26.00;40.20
578;DHT22;275;48.492;9.214;2023-08-20T00:40:48;26.00;40.40
578;DHT22;275;48.492;9.214;2023-08-20T00:43:15;26.20;40.20
578;DHT22;275;48.492;9.214;2023-08-20T00:45:43;26.50;39.10
578;DHT22;275;48.492;9.214;2023-08-20T00:48:11;26.40;39.20
578;DHT22;275;48.492;9.214;2023-08-20T00:50:38;26.30;39.80
578;DHT22;275;48.492;9.214;2023-08-20T00:53:07;26.40;39.40
578;DHT22;275;48.492;9.214;2023-08-20T00:55:35;26.40;39.40
578;DHT22;275;48.492;9.214;2023-08-20T00:58:03;26.40;39.60
578;DHT22;275;48.492;9.214;2023-08-20T01:00:30;26.40;39.70
578;DHT22;275;48.492;9.214;2023-08-20T01:02:58;26.20;40.30
578;DHT22;275;48.492;9.214;2023-08-20T01:05:25;26.10;40.80
578;DHT22;275;48.492;9.214;2023-08-20T01:07:59;25.80;41.70
578;DHT22;275;48.492;9.214;2023-08-20T01:10:38;25.60;42.40
578;DHT22;275;48.492;9.214;2023-08-20T01:13:07;26.00;41.30
578;DHT22;275;48.492;9.214;2023-08-20T01:15:34;26.00;41.20
578;DHT22;275;48.492;9.214;2023-08-20T01:18:02;26.10;40.80
578;DHT22;275;48.492;9.214;2023-08-20T01:20:34;26.10;40.80
578;DHT22;275;48.492;9.214;2023-08-20T01:23:33;26.10;40.80
578;DHT22;275;48.492;9.214;2023-08-20T01:26:17;26.00;41.40
578;DHT22;275;48.492;9.214;2023-08-20T01:28:49;26.20;40.90
578;DHT22;275;48.492;9.214;2023-08-20T01:31:18;26.40;40.20
578;DHT22;275;48.492;9.214;2023-08-20T01:33:46;26.50;39.90
578;DHT22;275;48.492;9.214;2023-08-20T01:36:13;26.50;39.60
578;DHT22;275;48.492;9.214;2023-08-20T01:38:40;26.40;40.00
578;DHT22;275;48.492;9.214;2023-08-20T01:41:06;26.60;39.60
578;DHT22;275;48.492;9.214;2023-08-20T01:43:33;26.40;40.20
578;DHT22;275;48.492;9.214;2023-08-20T01:46:02;26.40;40.40
578;DHT22;275;48.492;9.214;2023-08-20T01:48:28;26.30;40.40
578;DHT22;275;48.492;9.214;2023-08-20T01:50:55;26.10;41.00
578;DHT22;275;48.492;9.214;2023-08-20T01:53:22;26.10;40.80
578;DHT22;275;48.492;9.214;2023-08-20T01:55:49;26.10;40.90
578;DHT22;275;48.492;9.214;2023-08-20T01:58:16;25.60;42.70
578;DHT22;275;48.492;9.214;2023-08-20T02:00:42;24.90;45.10
578;DHT22;275;48.492;9.214;2023-08-20T02:03:12;24.70;45.60
578;DHT22;275;48.492;9.214;2023-08-20T02:05:39;25.00;44.80
578;DHT22;275;48.492;9.214;2023-08-20T02:08:06;25.20;44.10
578;DHT22;275;48.492;9.214;2023-08-20T02:10:32;25.20;44.00
578;DHT22;275;48.492;9.214;2023-08-20T02:12:59;25.30;43.50
578;DHT22;275;48.492;9.214;2023-08-20T02:15:26;25.60;42.50
578;DHT22;275;48.492;9.214;2023-08-20T02:17:53;25.70;42.40
578;DHT22;275;48.492;9.214;2023-08-20T02:20:21;25.80;42.10
578;DHT22;275;48.492;9.214;2023-08-20T02:22:48;25.70;42.60
578;DHT22;275;48.492;9.214;2023-08-20T02:25:15;25.00;45.20
578;DHT22;275;48.492;9.214;2023-08-20T02:27:42;24.60;46.20
578;DHT22;275;48.492;9.214;2023-08-20T02:30:09;24.60;46.70
578;DHT22;275;48.492;9.214;2023-08-20T02:32:38;25.00;45.70
578;DHT22;275;48.492;9.214;2023-08-20T02:35:06;25.20;44.30
578;DHT22;275;48.492;9.214;2023-08-20T02:37:34;25.50;43.20
578;DHT22;275;48.492;9.214;2023-08-20T02:40:02;25.60;43.20
578;DHT22;275;48.492;9.214;2023-08-20T02:42:30;25.70;42.90
578;DHT22;275;48.492;9.214;2023-08-20T02:44:57;25.70;42.80
578;DHT22;275;48.492;9.214;2023-08-20T02:47:23;25.30;43.90
578;DHT22;275;48.492;9.214;2023-08-20T02:49:51;25.20;44.50
578;DHT22;275;48.492;9.214;2023-08-20T02:52:18;25.00;45.00
578;DHT22;275;48.492;9.214;2023-08-20T02:54:46;25.40;43.70
578;DHT22;275;48.492;9.214;2023-08-20T02:57:13;25.30;44.60
578;DHT22;275;48.492;9.214;2023-08-20T02:59:39;25.40;44.30
578;DHT22;275;48.492;9.214;2023-08-20T03:02:06;25.70;43.10
578;DHT22;275;48.492;9.214;2023-08-20T03:04:33;25.30;44.40
578;DHT22;275;48.492;9.214;2023-08-20T03:07:00;25.10;45.20
578;DHT22;275;48.492;9.214;2023-08-20T03:09:27;25.10;45.50
578;DHT22;275;48.492;9.214;2023-08-20T03:11:55;25.20;44.60
578;DHT22;275;48.492;9.214;2023-08-20T03:14:22;25.40;44.00
578;DHT22;275;48.492;9.214;2023-08-20T03:16:49;25.50;43.90
578;DHT22;275;48.492;9.214;2023-08-20T03:19:16;25.50;43.60
578;DHT22;275;48.492;9.214;2023-08-20T03:21:42;25.20;44.00
578;DHT22;275;48.492;9.214;2023-08-20T03:24:09;24.60;46.30
578;DHT22;275;48.492;9.214;2023-08-20T03:26:36;24.60;46.60
578;DHT22;275;48.492;9.214;2023-08-20T03:29:04;24.50;46.90
578;DHT22;275;48.492;9.214;2023-08-20T03:31:31;24.60;47.00
578;DHT22;275;48.492;9.214;2023-08-20T03:33:58;24.60;46.90
578;DHT22;275;48.492;9.214;2023-08-20T03:36:25;24.90;45.70
578;DHT22;275;48.492;9.214;2023-08-20T03:38:52;25.10;44.90
578;DHT22;275;48.492;9.214;2023-08-20T03:41:19;24.40;46.70
578;DHT22;275;48.492;9.214;2023-08-20T03:43:45;24.20;47.60
578;DHT22;275;48.492;9.214;2023-08-20T03:46:14;24.30;47.10
578;DHT22;275;48.492;9.214;2023-08-20T03:48:42;24.40;46.80
578;DHT22;275;48.492;9.214;2023-08-20T03:51:08;24.60;46.00
578;DHT22;275;48.492;9.214;2023-08-20T03:53:35;24.70;45.60
578;DHT22;275;48.492;9.214;2023-08-20T03:56:02;24.70;45.90
578;DHT22;275;48.492;9.214;2023-08-20T03:58:29;24.70;45.90
578;DHT22;275;48.492;9.214;2023-08-20T04:00:56;24.80;45.50
578;DHT22;275;48.492;9.214;2023-08-20T04:03:24;24.70;45.90
578;DHT22;275;48.492;9.214;2023-08-20T04:05:51;24.60;46.50
578;DHT22;275;48.492;9.214;2023-08-20T04:08:17;24.80;45.90
578;DHT22;275;48.492;9.214;2023-08-20T04:10:44;24.90;45.80
578;DHT22;275;48.492;9.214;2023-08-20T04:13:11;24.80;45.80
578;DHT22;275;48.492;9.214;2023-08-20T04:15:39;24.80;46.10
578;DHT22;275;48.492;9.214;2023-08-20T04:18:06;24.90;46.00
578;DHT22;275;48.492;9.214;2023-08-20T04:20:34;24.90;45.80
578;DHT22;275;48.492;9.214;2023-08-20T04:23:01;24.70;46.80
578;DHT22;275;48.492;9.214;2023-08-20T04:25:28;24.90;46.00
578;DHT22;275;48.492;9.214;2023-08-20T04:27:55;24.30;47.50
578;DHT22;275;48.492;9.214;2023-08-20T04:30:22;24.10;48.20
578;DHT22;275;48.492;9.214;2023-08-20T04:32:48;24.00;48.10
578;DHT22;275;48.492;9.214;2023-08-20T04:35:15;23.80;49.00
578;DHT22;275;48.492;9.214;2023-08-20T04:37:43;23.80;49.10
578;DHT22;275;48.492;9.214;2023-08-20T04:40:11;23.90;49.00
578;DHT22;275;48.492;9.214;2023-08-20T04:42:38;24.10;48.50
578;DHT22;275;48.492;9.214;2023-08-20T04:45:06;24.50;47.40
578;DHT22;275;48.492;9.214;2023-08-20T04:47:33;24.80;46.60
578;DHT22;275;48.492;9.214;2023-08-20T04:50:00;24.60;46.90
578;DHT22;275;48.492;9.214;2023-08-20T04:52:27;24.40;47.70
578;DHT22;275;48.492;9.214;2023-08-20T04:54:55;24.60;47.30
578;DHT22;275;48.492;9.214;2023-08-20T04:57:22;24.50;47.60
578;DHT22;275;48.492;9.214;2023-08-20T04:59:49;24.70;46.80
578;DHT22;275;48.492;9.214;2023-08-20T05:02:16;24.90;46.00
578;DHT22;275;48.492;9.214;2023-08-20T05:04:42;25.30;44.80
578;DHT22;275;48.492;9.214;2023-08-20T05:07:09;25.50;44.30
578;DHT22;275;48.492;9.214;2023-08-20T05:09:36;25.50;44.20
578;DHT22;275;48.492;9.214;2023-08-20T05:12:05;25.60;43.20
578;DHT22;275;48.492;9.214;2023-08-20T05:14:32;25.40;43.10
578;DHT22;275;48.492;9.214;2023-08-20T05:16:59;25.20;43.50
578;DHT22;275;48.492;9.214;2023-08-20T05:19:25;24.90;44.30
578;DHT22;275;48.492;9.214;2023-08-20T05:21:52;24.90;44.90
578;DHT22;275;48.492;9.214;2023-08-20T05:24:21;25.60;43.30
578;DHT22;275;48.492;9.214;2023-08-20T05:27:04;26.20;41.60
578;DHT22;275;48.492;9.214;2023-08-20T05:29:31;27.10;39.10
578;DHT22;275;48.492;9.214;2023-08-20T05:31:57;26.90;39.90
578;DHT22;275;48.492;9.214;2023-08-20T05:34:24;27.00;39.10
578;DHT22;275;48.492;9.214;2023-08-20T05:36:51;27.60;37.70
578;DHT22;275;48.492;9.214;2023-08-20T05:39:18;28.00;37.00
578;DHT22;275;48.492;9.214;2023-08-20T05:41:45;27.80;36.70
578;DHT22;275;48.492;9.214;2023-08-20T05:44:13;26.50;40.00
578;DHT22;275;48.492;9.214;2023-08-20T05:46:39;25.40;43.30
578;DHT22;275;48.492;9.214;2023-08-20T05:49:07;25.40;44.00
578;DHT22;275;48.492;9.214;2023-08-20T05:51:33;25.90;42.20
578;DHT22;275;48.492;9.214;2023-08-20T05:54:00;25.90;42.40
578;DHT22;275;48.492;9.214;2023-08-20T05:56:27;26.00;42.40
578;DHT22;275;48.492;9.214;2023-08-20T05:58:54;26.10;41.70
578;DHT22;275;48.492;9.214;2023-08-20T06:01:23;26.20;41.50
578;DHT22;275;48.492;9.214;2023-08-20T06:03:49;26.40;41.00
578;DHT22;275;48.492;9.214;2023-08-20T06:06:16;26.50;40.90
578;DHT22;275;48.492;9.214;2023-08-20T06:08:43;26.30;41.50
578;DHT22;275;48.492;9.214;2023-08-20T06:11:10;26.40;41.50
578;DHT22;275;48.492;9.214;2023-08-20T06:13:36;26.20;42.00
578;DHT22;275;48.492;9.214;2023-08-20T06:16:04;26.30;41.70
578;DHT22;275;48.492;9.214;2023-08-20T06:18:32;26.50;41.20
578;DHT22;275;48.492;9.214;2023-08-20T06:20:59;26.50;41.00
578;DHT22;275;48.492;9.214;2023-08-20T06:23:26;26.40;41.40
578;DHT22;275;48.492;9.214;2023-08-20T06:25:53;26.10;41.90
578;DHT22;275;48.492;9.214;2023-08-20T06:28:20;26.50;41.00
578;DHT22;275;48.492;9.214;2023-08-20T06:30:46;26.60;40.60
578;DHT22;275;48.492;9.214;2023-08-20T06:33:13;26.40;41.00
578;DHT22;275;48.492;9.214;2023-08-20T06:35:41;26.40;41.00
578;DHT22;275;48.492;9.214;2023-08-20T06:38:08;26.60;40.40
578;DHT22;275;48.492;9.214;2023-08-20T06:40:35;26.80;40.10
578;DHT22;275;48.492;9.214;2023-08-20T06:43:02;26.90;39.90
578;DHT22;275;48.492;9.214;2023-08-20T06:45:29;27.10;39.30
578;DHT22;275;48.492;9.214;2023-08-20T06:47:56;27.10;39.30
578;DHT22;275;48.492;9.214;2023-08-20T06:50:23;27.40;38.80
578;DHT22;275;48.492;9.214;2023-08-20T06:52:51;27.40;38.80
578;DHT22;275;48.492;9.214;2023-08-20T06:55:18;27.70;38.00
578;DHT22;275;48.492;9.214;2023-08-20T06:57:45;27.70;37.90
578;DHT22;275;48.492;9.214;2023-08-20T07:00:12;27.10;39.90
578;DHT22;275;48.492;9.214;2023-08-20T07:02:38;27.20;39.90
578;DHT22;275;48.492;9.214;2023-08-20T07:05:06;27.30;39.20
578;DHT22;275;48.492;9.214;2023-08-20T07:07:34;27.60;39.00
578;DHT22;275;48.492;9.214;2023-08-20T07:10:03;28.00;37.70
578;DHT22;275;48.492;9.214;2023-08-20T07:12:30;28.10;37.40
578;DHT22;275;48.492;9.214;2023-08-20T07:14:57;28.00;37.80
578;DHT22;275;48.492;9.214;2023-08-20T07:17:23;28.60;36.70
578;DHT22;275;48.492;9.214;2023-08-20T07:19:50;29.40;35.00
578;DHT22;275;48.492;9.214;2023-08-20T07:22:17;29.90;34.00
578;DHT22;275;48.492;9.214;2023-08-20T07:24:44;31.00;31.70
578;DHT22;275;48.492;9.214;2023-08-20T07:27:12;32.20;29.60
578;DHT22;275;48.492;9.214;2023-08-20T07:29:39;32.60;28.40
578;DHT22;275;48.492;9.214;2023-08-20T07:32:06;33.00;27.80
578;DHT22;275;48.492;9.214;2023-08-20T07:34:33;33.50;27.00
578;DHT22;275;48.492;9.214;2023-08-20T07:37:00;32.90;27.70
578;DHT22;275;48.492;9.214;2023-08-20T07:39:28;32.10;29.30
578;DHT22;275;48.492;9.214;2023-08-20T07:41:55;32.30;29.20
578;DHT22;275;48.492;9.214;2023-08-20T07:44:23;35.00;25.50
578;DHT22;275;48.492;9.214;2023-08-20T07:46:50;35.30;24.60
578;DHT22;275;48.492;9.214;2023-08-20T07:49:16;33.50;26.40
578;DHT22;275;48.492;9.214;2023-08-20T07:51:43;32.40;28.50
578;DHT22;275;48.492;9.214;2023-08-20T07:54:10;34.40;26.20
578;DHT22;275;48.492;9.214;2023-08-20T07:56:37;36.20;23.70
578;DHT22;275;48.492;9.214;2023-08-20T07:59:04;37.90;21.70
578;DHT22;275;48.492;9.214;2023-08-20T08:01:32;38.10;20.80
578;DHT22;275;48.492;9.214;2023-08-20T08:03:59;38.50;20.20
578;DHT22;275;48.492;9.214;2023-08-20T08:06:26;39.10;19.50
578;DHT22;275;48.492;9.214;2023-08-20T08:08:53;38.90;19.40
578;DHT22;275;48.492;9.214;2023-08-20T08:11:19;38.70;20.50
578;DHT22;275;48.492;9.214;2023-08-20T08:13:46;38.90;19.60
578;DHT22;275;48.492;9.214;2023-08-20T08:16:13;39.30;19.00
578;DHT22;275;48.492;9.214;2023-08-20T08:18:41;38.60;19.60
578;DHT22;275;48.492;9.214;2023-08-20T08:21:08;37.20;21.40
578;DHT22;275;48.492;9.214;2023-08-20T08:23:35;36.90;22.20
578;DHT22;275;48.492;9.214;2023-08-20T08:26:01;38.60;20.00
578;DHT22;275;48.492;9.214;2023-08-20T08:28:28;40.00;18.60
578;DHT22;275;48.492;9.214;2023-08-20T08:30:55;39.50;18.50
578;DHT22;275;48.492;9.214;2023-08-20T08:33:22;40.00;18.30
578;DHT22;275;48.492;9.214;2023-08-20T08:35:51;41.60;16.40
578;DHT22;275;48.492;9.214;2023-08-20T08:38:18;40.10;17.70
578;DHT22;275;48.492;9.214;2023-08-20T08:40:45;40.10;17.70
578;DHT22;275;48.492;9.214;2023-08-20T08:43:13;41.70;16.10
578;DHT22;275;48.492;9.214;2023-08-20T08:45:43;43.10;14.70
578;DHT22;275;48.492;9.214;2023-08-20T08:48:12;43.80;13.80
578;DHT22;275;48.492;9.214;2023-08-20T08:50:39;43.80;13.60
578;DHT22;275;48.492;9.214;2023-08-20T08:53:09;44.10;13.00
578;DHT22;275;48.492;9.214;2023-08-20T08:55:36;44.30;12.70
578;DHT22;275;48.492;9.214;2023-08-20T08:58:04;43.80;13.10
578;DHT22;275;48.492;9.214;2023-08-20T09:00:31;44.30;12.80
578;DHT22;275;48.492;9.214;2023-08-20T09:02:58;45.00;12.00
578;DHT22;275;48.492;9.214;2023-08-20T09:05:25;44.90;11.90
578;DHT22;275;48.492;9.214;2023-08-20T09:07:55;45.00;12.30
578;DHT22;275;48.492;9.214;2023-08-20T09:10:27;45.30;11.40
578;DHT22;275;48.492;9.214;2023-08-20T09:12:54;44.40;12.40
578;DHT22;275;48.492;9.214;2023-08-20T09:15:31;42.90;13.50
578;DHT22;275;48.492;9.214;2023-08-20T09:18:01;43.90;12.70
578;DHT22;275;48.492;9.214;2023-08-20T09:20:34;43.80;12.60
578;DHT22;275;48.492;9.214;2023-08-20T09:23:01;42.90;13.10
578;DHT22;275;48.492;9.214;2023-08-20T09:25:29;43.40;12.90
578;DHT22;275;48.492;9.214;2023-08-20T09:27:56;44.00;12.30
578;DHT22;275;48.492;9.214;2023-08-20T09:30:23;44.00;12.20
578;DHT22;275;48.492;9.214;2023-08-20T09:33:03;44.50;11.90
578;DHT22;275;48.492;9.214;2023-08-20T09:35:30;44.40;11.40
578;DHT22;275;48.492;9.214;2023-08-20T09:37:59;43.60;12.30
578;DHT22;275;48.492;9.214;2023-08-20T09:40:28;44.00;11.80
578;DHT22;275;48.492;9.214;2023-08-20T09:42:56;44.10;11.20
578;DHT22;275;48.492;9.214;2023-08-20T09:45:24;44.30;11.10
578;DHT22;275;48.492;9.214;2023-08-20T09:47:55;45.00;10.50
578;DHT22;275;48.492;9.214;2023-08-20T09:50:23;45.30;9.90
578;DHT22;275;48.492;9.214;2023-08-20T09:52:56;45.70;9.70
578;DHT22;275;48.492;9.214;2023-08-20T09:55:30;46.10;8.90
578;DHT22;275;48.492;9.214;2023-08-20T09:57:59;45.10;9.60
578;DHT22;275;48.492;9.214;2023-08-20T10:00:28;42.70;11.70
578;DHT22;275;48.492;9.214;2023-08-20T10:02:55;40.80;13.90
578;DHT22;275;48.492;9.214;2023-08-20T10:05:23;42.20;12.40
578;DHT22;275;48.492;9.214;2023-08-20T10:07:50;43.30;11.00
578;DHT22;275;48.492;9.214;2023-08-20T10:10:18;44.70;9.90
578;DHT22;275;48.492;9.214;2023-08-20T10:12:46;45.30;9.30
578;DHT22;275;48.492;9.214;2023-08-20T10:15:14;45.10;9.40
578;DHT22;275;48.492;9.214;2023-08-20T10:17:42;46.10;8.50
578;DHT22;275;48.492;9.214;2023-08-20T10:20:13;46.30;7.70
578;DHT22;275;48.492;9.214;2023-08-20T10:22:41;47.30;7.10
578;DHT22;275;48.492;9.214;2023-08-20T10:25:09;47.80;6.60
578;DHT22;275;48.492;9.214;2023-08-20T10:27:39;47.70;6.80
578;DHT22;275;48.492;9.214;2023-08-20T10:30:10;47.30;7.10
578;DHT22;275;48.492;9.214;2023-08-20T10:32:46;45.60;8.70
578;DHT22;275;48.492;9.214;2023-08-20T10:35:14;44.50;9.50
578;DHT22;275;48.492;9.214;2023-08-20T10:38:03;43.90;10.60
578;DHT22;275;48.492;9.214;2023-08-20T10:40:52;44.60;10.00
578;DHT22;275;48.492;9.214;2023-08-20T10:43:33;45.90;8.80
578;DHT22;275;48.492;9.214;2023-08-20T10:46:05;45.90;8.90
578;DHT22;275;48.492;9.214;2023-08-20T10:48:35;45.30;9.20
578;DHT22;275;48.492;9.214;2023-08-20T10:51:12;44.50;10.10
578;DHT22;275;48.492;9.214;2023-08-20T10:53:40;44.50;10.00
578;DHT22;275;48.492;9.214;2023-08-20T10:56:16;46.00;8.50
578;DHT22;275;48.492;9.214;2023-08-20T10:58:44;46.50;8.10
578;DHT22;275;48.492;9.214;2023-08-20T11:01:22;46.20;7.80
578;DHT22;275;48.492;9.214;2023-08-20T11:03:50;46.20;7.40
578;DHT22;275;48.492;9.214;2023-08-20T11:06:18;43.60;10.10
578;DHT22;275;48.492;9.214;2023-08-20T11:08:45;42.90;10.10
578;DHT22;275;48.492;9.214;2023-08-20T11:11:13;42.20;11.30
578;DHT22;275;48.492;9.214;2023-08-20T11:13:39;43.10;10.20
578;DHT22;275;48.492;9.214;2023-08-20T11:16:08;44.30;9.10
578;DHT22;275;48.492;9.214;2023-08-20T11:18:36;43.50;10.10
578;DHT22;275;48.492;9.214;2023-08-20T11:21:03;43.90;9.10
578;DHT22;275;48.492;9.214;2023-08-20T11:23:31;44.10;9.20
578;DHT22;275;48.492;9.214;2023-08-20T11:25:58;44.10;9.50
578;DHT22;275;48.492;9.214;2023-08-20T11:28:26;43.20;9.20
578;DHT22;275;48.492;9.214;2023-08-20T11:30:54;41.30;11.00
578;DHT22;275;48.492;9.214;2023-08-20T11:33:21;39.50;13.30
578;DHT22;275;48.492;9.214;2023-08-20T11:35:50;38.00;15.10
578;DHT22;275;48.492;9.214;2023-08-20T11:38:18;37.80;15.40
578;DHT22;275;48.492;9.214;2023-08-20T11:40:46;36.90;16.90
578;DHT22;275;48.492;9.214;2023-08-20T11:43:13;36.70;17.30
578;DHT22;275;48.492;9.214;2023-08-20T11:45:47;35.90;18.20
578;DHT22;275;48.492;9.214;2023-08-20T11:48:15;36.10;17.90
578;DHT22;275;48.492;9.214;2023-08-20T11:50:42;36.00;17.30
578;DHT22;275;48.492;9.214;2023-08-20T11:53:11;35.40;18.10
578;DHT22;275;48.492;9.214;2023-08-20T11:55:39;35.70;17.60
578;DHT22;275;48.492;9.214;2023-08-20T11:58:09;37.20;16.50
578;DHT22;275;48.492;9.214;2023-08-20T12:00:37;39.20;13.80
578;DHT22;275;48.492;9.214;2023-08-20T12:03:05;39.40;13.70
578;DHT22;275;48.492;9.214;2023-08-20T12:05:32;40.70;12.90
578;DHT22;275;48.492;9.214;2023-08-20T12:08:00;41.10;12.70
578;DHT22;275;48.492;9.214;2023-08-20T12:10:29;42.60;11.20
578;DHT22;275;48.492;9.214;2023-08-20T12:12:57;42.50;11.30
578;DHT22;275;48.492;9.214;2023-08-20T12:15:25;43.70;9.90
578;DHT22;275;48.492;9.214;2023-08-20T12:17:59;43.00;10.50
578;DHT22;275;48.492;9.214;2023-08-20T12:20:27;43.30;10.40
578;DHT22;275;48.492;9.214;2023-08-20T12:22:56;42.50;10.90
578;DHT22;275;48.492;9.214;2023-08-20T12:25:23;42.40;11.10
578;DHT22;275;48.492;9.214;2023-08-20T12:27:51;44.30;9.10
578;DHT22;275;48.492;9.214;2023-08-20T12:30:18;44.30;8.90
578;DHT22;275;48.492;9.214;2023-08-20T12:32:46;43.70;9.90
578;DHT22;275;48.492;9.214;2023-08-20T12:35:12;45.40;7.90
578;DHT22;275;48.492;9.214;2023-08-20T12:37:39;42.90;9.80
578;DHT22;275;48.492;9.214;2023-08-20T12:40:07;43.70;9.20
578;DHT22;275;48.492;9.214;2023-08-20T12:42:36;44.80;8.30
578;DHT22;275;48.492;9.214;2023-08-20T12:45:06;45.50;7.70
578;DHT22;275;48.492;9.214;2023-08-20T12:47:33;44.60;8.20
578;DHT22;275;48.492;9.214;2023-08-20T12:50:00;44.20;8.90
578;DHT22;275;48.492;9.214;2023-08-20T12:52:26;42.90;10.00
578;DHT22;275;48.492;9.214;2023-08-20T12:54:53;42.90;10.30
578;DHT22;275;48.492;9.214;2023-08-20T12:57:20;43.50;9.30
578;DHT22;275;48.492;9.214;2023-08-20T12:59:47;44.40;8.60
578;DHT22;275;48.492;9.214;2023-08-20T13:02:15;45.70;7.30
578;DHT22;275;48.492;9.214;2023-08-20T13:04:42;46.20;6.60
578;DHT22;275;48.492;9.214;2023-08-20T13:07:10;46.90;6.10
578;DHT22;275;48.492;9.214;2023-08-20T13:09:37;46.20;6.30
578;DHT22;275;48.492;9.214;2023-08-20T13:12:05;45.90;7.10
578;DHT22;275;48.492;9.214;2023-08-20T13:14:35;45.70;6.70
578;DHT22;275;48.492;9.214;2023-08-20T13:17:02;43.50;9.10
578;DHT22;275;48.492;9.214;2023-08-20T13:19:30;42.00;10.60
578;DHT22;275;48.492;9.214;2023-08-20T13:21:57;39.40;13.30
578;DHT22;275;48.492;9.214;2023-08-20T13:24:24;38.30;14.70
578;DHT22;275;48.492;9.214;2023-08-20T13:26:51;37.70;15.40
578;DHT22;275;48.492;9.214;2023-08-20T13:29:18;37.10;16.10
578;DHT22;275;48.492;9.214;2023-08-20T13:31:45;37.50;15.70
578;DHT22;275;48.492;9.214;2023-08-20T13:34:12;36.90;16.40
578;DHT22;275;48.492;9.214;2023-08-20T13:36:40;36.00;17.40
578;DHT22;275;48.492;9.214;2023-08-20T13:39:06;35.40;18.80
578;DHT22;275;48.492;9.214;2023-08-20T13:41:33;35.80;18.10
578;DHT22;275;48.492;9.214;2023-08-20T13:44:00;35.60;18.30
578;DHT22;275;48.492;9.214;2023-08-20T13:46:27;36.00;17.80
578;DHT22;275;48.492;9.214;2023-08-20T13:48:54;35.70;18.20
578;DHT22;275;48.492;9.214;2023-08-20T13:51:21;35.80;18.20
578;DHT22;275;48.492;9.214;2023-08-20T13:53:49;36.20;17.50
578;DHT22;275;48.492;9.214;2023-08-20T13:56:16;36.40;17.40
578;DHT22;275;48.492;9.214;2023-08-20T13:58:43;36.70;16.90
578;DHT22;275;48.492;9.214;2023-08-20T14:01:10;37.00;16.60
578;DHT22;275;48.492;9.214;2023-08-20T14:03:36;37.00;16.20
578;DHT22;275;48.492;9.214;2023-08-20T14:06:03;36.20;17.60
578;DHT22;275;48.492;9.214;2023-08-20T14:08:30;35.30;18.70
578;DHT22;275;48.492;9.214;2023-08-20T14:10:58;35.20;18.70
578;DHT22;275;48.492;9.214;2023-08-20T14:13:25;34.80;19.60
578;DHT22;275;48.492;9.214;2023-08-20T14:15:52;34.40;19.80
578;DHT22;275;48.492;9.214;2023-08-20T14:18:19;35.30;18.90
578;DHT22;275;48.492;9.214;2023-08-20T14:20:46;35.30;19.00
578;DHT22;275;48.492;9.214;2023-08-20T14:23:13;35.40;18.70
578;DHT22;275;48.492;9.214;2023-08-20T14:25:40;36.00;18.00
578;DHT22;275;48.492;9.214;2023-08-20T14:28:08;36.10;18.00
578;DHT22;275;48.492;9.214;2023-08-20T14:30:36;36.10;18.00
578;DHT22;275;48.492;9.214;2023-08-20T14:33:03;35.50;18.60
578;DHT22;275;48.492;9.214;2023-08-20T14:35:30;35.40;18.70
578;DHT22;275;48.492;9.214;2023-08-20T14:37:57;35.20;18.90
578;DHT22;275;48.492;9.214;2023-08-20T14:40:24;35.10;19.00
578;DHT22;275;48.492;9.214;2023-08-20T14:42:51;35.40;18.60
578;DHT22;275;48.492;9.214;2023-08-20T14:45:19;34.60;19.70
578;DHT22;275;48.492;9.214;2023-08-20T14:47:47;34.00;20.50
578;DHT22;275;48.492;9.214;2023-08-20T14:50:13;34.40;20.20
578;DHT22;275;48.492;9.214;2023-08-20T14:52:40;35.30;19.00
578;DHT22;275;48.492;9.214;2023-08-20T14:55:07;35.10;19.10
578;DHT22;275;48.492;9.214;2023-08-20T14:57:35;34.70;19.90
578;DHT22;275;48.492;9.214;2023-08-20T15:00:04;35.20;18.70
578;DHT22;275;48.492;9.214;2023-08-20T15:02:35;35.60;18.30
578;DHT22;275;48.492;9.214;2023-08-20T15:05:02;35.60;18.30
578;DHT22;275;48.492;9.214;2023-08-20T15:07:29;35.60;18.30
578;DHT22;275;48.492;9.214;2023-08-20T15:09:56;35.40;18.60
578;DHT22;275;48.492;9.214;2023-08-20T15:12:23;35.60;18.30
578;DHT22;275;48.492;9.214;2023-08-20T15:14:49;35.10;19.20
578;DHT22;275;48.492;9.214;2023-08-20T15:17:16;34.80;19.80
578;DHT22;275;48.492;9.214;2023-08-20T15:19:45;35.50;18.80
578;DHT22;275;48.492;9.214;2023-08-20T15:22:13;35.40;19.10
578;DHT22;275;48.492;9.214;2023-08-20T15:24:39;35.00;19.40
578;DHT22;275;48.492;9.214;2023-08-20T15:27:06;34.90;19.80
578;DHT22;275;48.492;9.214;2023-08-20T15:29:33;35.30;19.50
578;DHT22;275;48.492;9.214;2023-08-20T15:32:00;35.40;19.40
578;DHT22;275;48.492;9.214;2023-08-20T15:34:26;34.30;21.30
578;DHT22;275;48.492;9.214;2023-08-20T15:36:55;34.10;21.70
578;DHT22;275;48.492;9.214;2023-08-20T15:39:21;34.10;21.20
578;DHT22;275;48.492;9.214;2023-08-20T15:41:49;34.40;20.70
578;DHT22;275;48.492;9.214;2023-08-20T15:44:16;34.30;20.90
578;DHT22;275;48.492;9.214;2023-08-20T15:46:43;33.90;21.40
578;DHT22;275;48.492;9.214;2023-08-20T15:49:09;33.90;21.60
578;DHT22;275;48.492;9.214;2023-08-20T15:51:36;33.90;21.40
578;DHT22;275;48.492;9.214;2023-08-20T15:54:05;33.80;21.50
578;DHT22;275;48.492;9.214;2023-08-20T15:56:32;33.70;21.80
578;DHT22;275;48.492;9.214;2023-08-20T15:58:58;33.60;22.20
578;DHT22;275;48.492;9.214;2023-08-20T16:01:25;33.70;22.40
578;DHT22;275;48.492;9.214;2023-08-20T16:03:53;33.70;21.70
578;DHT22;275;48.492;9.214;2023-08-20T16:06:20;33.70;22.20
578;DHT22;275;48.492;9.214;2023-08-20T16:08:47;33.60;22.30
578;DHT22;275;48.492;9.214;2023-08-20T16:11:16;33.70;21.90
578;DHT22;275;48.492;9.214;2023-08-20T16:13:43;34.10;21.60
578;DHT22;275;48.492;9.214;2023-08-20T16:16:11;33.90;21.70
578;DHT22;275;48.492;9.214;2023-08-20T16:18:38;33.80;22.00
578;DHT22;275;48.492;9.214;2023-08-20T16:21:05;33.60;22.10
578;DHT22;275;48.492;9.214;2023-08-20T16:23:32;33.70;22.80
578;DHT22;275;48.492;9.214;2023-08-20T16:25:59;33.30;22.60
578;DHT22;275;48.492;9.214;2023-08-20T16:28:27;33.60;22.50
578;DHT22;275;48.492;9.214;2023-08-20T16:30:54;34.00;22.20
578;DHT22;275;48.492;9.214;2023-08-20T16:33:20;34.30;22.40
578;DHT22;275;48.492;9.214;2023-08-20T16:35:49;34.50;21.60
578;DHT22;275;48.492;9.214;2023-08-20T16:38:16;34.10;22.20
578;DHT22;275;48.492;9.214;2023-08-20T16:40:43;33.80;22.70